createdAt,value
2023-08-25T00:01:35.801Z,11.20
2023-08-25T00:04:03.205Z,11.30
2023-08-25T00:06:29.959Z,10.35
2023-08-25T00:08:56.716Z,10.07
2023-08-25T00:11:23.514Z,10.48
2023-08-25T00:13:50.295Z,12.73
2023-08-25T00:16:17.092Z,9.80
2023-08-25T00:18:44.700Z,9.70
2023-08-25T00:21:12.353Z,11.32
2023-08-25T00:23:39.318Z,11.10
2023-08-25T00:26:06.043Z,10.57
2023-08-25T00:28:32.738Z,9.38
2023-08-25T00:30:59.468Z,10.23
2023-08-25T00:33:26.618Z,9.40
2023-08-25T00:35:53.411Z,9.25
2023-08-25T00:38:20.263Z,9.40
2023-08-25T00:40:46.932Z,12.90
2023-08-25T00:43:13.762Z,13.38
2023-08-25T00:45:42.362Z,11.77
2023-08-25T00:48:10.977Z,11.25
2023-08-25T00:50:39.094Z,9.03
2023-08-25T00:53:06.909Z,8.98
2023-08-25T00:55:33.938Z,12.52
2023-08-25T00:58:00.969Z,10.82
2023-08-25T01:00:28.137Z,9.63
2023-08-25T01:02:55.594Z,8.63
2023-08-25T01:05:22.519Z,9.00
2023-08-25T01:07:49.829Z,9.15
2023-08-25T01:10:17.635Z,9.48
2023-08-25T01:13:19.371Z,10.25
2023-08-25T01:15:50.334Z,8.65
2023-08-25T01:18:23.825Z,11.10
2023-08-25T01:20:52.219Z,12.32
2023-08-25T01:23:42.319Z,11.63
2023-08-25T01:26:10.901Z,9.50
2023-08-25T01:28:42.359Z,14.10
2023-08-25T01:31:09.545Z,10.07
2023-08-25T01:33:36.696Z,10.38
2023-08-25T01:36:29.902Z,9.90
2023-08-25T01:39:07.783Z,10.27
2023-08-25T01:41:45.806Z,10.00
2023-08-25T01:44:15.214Z,11.48
2023-08-25T01:46:45.422Z,10.75
2023-08-25T01:49:14.729Z,13.32
2023-08-25T01:51:42.916Z,9.52
2023-08-25T01:54:09.819Z,13.40
2023-08-25T01:56:36.562Z,11.07
2023-08-25T01:59:03.432Z,11.32
2023-08-25T02:01:32.071Z,13.73
2023-08-25T02:03:59.445Z,11.95
2023-08-25T02:06:26.431Z,11.02
2023-08-25T02:08:53.204Z,14.95
2023-08-25T02:11:20.568Z,13.45
2023-08-25T02:13:47.295Z,14.32
2023-08-25T02:16:14.030Z,14.40
2023-08-25T02:18:40.837Z,15.07
2023-08-25T02:21:07.884Z,16.42
2023-08-25T02:23:34.614Z,17.27
2023-08-25T02:26:01.288Z,15.32
2023-08-25T02:28:28.829Z,18.33
2023-08-25T02:30:55.660Z,16.20
2023-08-25T02:33:22.386Z,15.90
2023-08-25T02:35:49.223Z,17.58
2023-08-25T02:38:16.419Z,15.57
2023-08-25T02:40:43.572Z,13.77
2023-08-25T02:43:10.401Z,14.10
2023-08-25T02:45:37.736Z,16.13
2023-08-25T02:48:05.103Z,14.27
2023-08-25T02:50:32.057Z,19.48
2023-08-25T02:52:58.900Z,15.65
2023-08-25T02:55:25.760Z,14.02
2023-08-25T02:57:53.676Z,11.63
2023-08-25T03:00:24.404Z,13.23
2023-08-25T03:02:51.713Z,12.60
2023-08-25T03:05:19.241Z,12.18
2023-08-25T03:07:46.054Z,13.90
2023-08-25T03:10:13.389Z,17.05
2023-08-25T03:12:41.023Z,17.25
2023-08-25T03:15:08.554Z,18.45
2023-08-25T03:17:35.656Z,16.25
2023-08-25T03:20:03.927Z,14.88
2023-08-25T03:22:31.107Z,11.85
2023-08-25T03:24:57.986Z,11.63
2023-08-25T03:27:24.661Z,11.25
2023-08-25T03:29:51.493Z,12.25
2023-08-25T03:32:18.205Z,11.75
2023-08-25T03:34:44.918Z,12.27
2023-08-25T03:37:12.858Z,11.50
2023-08-25T03:39:39.771Z,11.13
2023-08-25T03:42:06.859Z,10.90
2023-08-25T03:44:33.639Z,10.55
2023-08-25T03:47:00.607Z,12.25
2023-08-25T03:49:29.587Z,10.75
2023-08-25T03:51:57.592Z,10.85
2023-08-25T03:54:24.535Z,12.88
2023-08-25T03:56:51.373Z,11.02
2023-08-25T03:59:18.111Z,11.38
2023-08-25T04:01:44.911Z,11.20
2023-08-25T04:04:11.619Z,11.68
2023-08-25T04:06:38.426Z,12.98
2023-08-25T04:09:05.269Z,10.98
2023-08-25T04:11:32.130Z,10.45
2023-08-25T04:13:58.874Z,10.93
2023-08-25T04:16:25.716Z,11.00
2023-08-25T04:18:52.436Z,14.43
2023-08-25T04:21:19.847Z,11.63
2023-08-25T04:23:46.515Z,9.45
2023-08-25T04:26:13.242Z,12.20
2023-08-25T04:28:39.975Z,16.20
2023-08-25T04:31:06.712Z,13.77
2023-08-25T04:33:33.492Z,16.42
2023-08-25T04:36:00.236Z,18.65
2023-08-25T04:38:27.024Z,15.57
2023-08-25T04:40:53.742Z,16.35
2023-08-25T04:43:20.549Z,19.77
2023-08-25T04:45:47.804Z,21.25
2023-08-25T04:48:14.686Z,18.00
2023-08-25T04:50:41.402Z,23.40
2023-08-25T04:53:08.758Z,23.10
2023-08-25T04:55:36.113Z,27.67
2023-08-25T04:58:04.142Z,21.33
2023-08-25T05:00:31.128Z,22.48
2023-08-25T05:02:57.928Z,18.08
2023-08-25T05:05:24.705Z,29.75
2023-08-25T05:07:52.730Z,22.23
2023-08-25T05:10:19.826Z,29.58
2023-08-25T05:12:46.503Z,25.63
2023-08-25T05:15:13.308Z,28.58
2023-08-25T05:17:40.040Z,23.83
2023-08-25T05:20:09.317Z,25.88
2023-08-25T05:22:36.318Z,31.33
2023-08-25T05:25:03.056Z,35.58
2023-08-25T05:27:29.884Z,58.58
2023-08-25T05:29:56.603Z,62.53
2023-08-25T05:32:23.870Z,63.25
2023-08-25T05:34:50.706Z,60.00
2023-08-25T05:37:17.406Z,72.50
2023-08-25T05:39:44.187Z,68.45
2023-08-25T05:42:11.265Z,69.60
2023-08-25T05:44:37.969Z,71.63
2023-08-25T05:47:04.793Z,79.78
2023-08-25T05:49:31.617Z,75.13
2023-08-25T05:51:58.335Z,66.32
2023-08-25T05:54:25.262Z,64.97
2023-08-25T05:56:53.326Z,68.00
2023-08-25T05:59:20.214Z,66.00
2023-08-25T06:01:46.993Z,69.72
2023-08-25T06:04:13.802Z,63.65
2023-08-25T06:06:42.960Z,57.15
2023-08-25T06:09:09.867Z,52.88
2023-08-25T06:11:37.319Z,55.17
2023-08-25T06:14:04.116Z,53.65
2023-08-25T06:16:30.875Z,49.67
2023-08-25T06:18:57.709Z,49.40
2023-08-25T06:21:24.448Z,51.35
2023-08-25T06:23:51.132Z,44.65
2023-08-25T06:26:18.631Z,36.08
2023-08-25T06:28:45.347Z,41.75
2023-08-25T06:31:12.369Z,35.42
2023-08-25T06:33:40.179Z,34.65
2023-08-25T06:36:07.023Z,39.20
2023-08-25T06:38:42.213Z,32.30
2023-08-25T06:41:17.270Z,25.35
2023-08-25T06:43:43.951Z,26.23
2023-08-25T06:46:10.723Z,21.88
2023-08-25T06:48:37.547Z,22.73
2023-08-25T06:51:04.387Z,25.40
2023-08-25T06:53:31.247Z,21.90
2023-08-25T06:55:58.050Z,19.10
2023-08-25T06:58:24.804Z,20.23
2023-08-25T07:00:52.165Z,18.02
2023-08-25T07:03:18.988Z,15.68
2023-08-25T07:05:45.726Z,15.23
2023-08-25T07:08:12.481Z,14.32
2023-08-25T07:10:39.315Z,13.32
2023-08-25T07:13:06.060Z,14.38
2023-08-25T07:15:33.130Z,18.23
2023-08-25T07:17:59.973Z,11.70
2023-08-25T07:20:26.911Z,12.88
2023-08-25T07:22:53.616Z,11.32
2023-08-25T07:25:20.353Z,11.90
2023-08-25T07:27:47.081Z,14.98
2023-08-25T07:30:13.831Z,15.20
2023-08-25T07:32:40.602Z,11.60
2023-08-25T07:35:08.947Z,14.02
2023-08-25T07:37:35.810Z,12.27
2023-08-25T07:40:05.585Z,12.88
2023-08-25T07:42:32.479Z,24.70
2023-08-25T07:44:59.557Z,21.33
2023-08-25T07:47:26.361Z,22.88
2023-08-25T07:49:53.609Z,21.88
2023-08-25T07:52:20.333Z,22.75
2023-08-25T07:54:47.057Z,19.15
2023-08-25T07:57:14.139Z,23.20
2023-08-25T07:59:40.849Z,21.25
2023-08-25T08:02:07.635Z,18.60
2023-08-25T08:04:34.375Z,18.83
2023-08-25T08:07:02.425Z,19.83
2023-08-25T08:09:29.904Z,16.35
2023-08-25T08:11:57.241Z,13.85
2023-08-25T08:14:39.871Z,19.52
2023-08-25T08:17:11.119Z,12.48
2023-08-25T08:19:37.949Z,14.05
2023-08-25T08:22:04.953Z,15.20
2023-08-25T08:24:47.614Z,12.57
2023-08-25T08:27:18.026Z,10.13
2023-08-25T08:29:47.110Z,10.30
2023-08-25T08:32:14.915Z,10.88
2023-08-25T08:34:41.895Z,9.63
2023-08-25T08:37:08.623Z,12.35
2023-08-25T08:39:38.466Z,10.05
2023-08-25T08:42:08.844Z,14.82
2023-08-25T08:44:37.717Z,7.85
2023-08-25T08:47:04.950Z,13.38
2023-08-25T08:49:33.680Z,8.82
2023-08-25T08:52:02.602Z,11.32
2023-08-25T08:54:30.931Z,8.05
2023-08-25T08:56:57.994Z,7.70
2023-08-25T08:59:24.783Z,8.70
2023-08-25T09:01:52.444Z,11.70
2023-08-25T09:04:24.195Z,13.68
2023-08-25T09:06:52.540Z,9.73
2023-08-25T09:09:20.844Z,8.80
2023-08-25T09:11:48.621Z,11.15
2023-08-25T09:14:29.477Z,9.65
2023-08-25T09:16:57.311Z,9.43
2023-08-25T09:19:24.652Z,11.13
2023-08-25T09:21:52.003Z,9.15
2023-08-25T09:24:22.961Z,6.63
2023-08-25T09:26:52.758Z,8.93
2023-08-25T09:29:19.887Z,9.93
2023-08-25T09:31:46.673Z,5.63
2023-08-25T09:34:15.386Z,11.02
2023-08-25T09:36:56.207Z,6.45
2023-08-25T09:39:24.009Z,6.13
2023-08-25T09:41:51.236Z,7.53
2023-08-25T09:44:18.459Z,7.35
2023-08-25T09:46:46.498Z,7.05
2023-08-25T09:49:14.940Z,8.00
2023-08-25T09:51:43.692Z,7.72
2023-08-25T09:54:13.486Z,7.20
2023-08-25T09:56:41.557Z,6.15
2023-08-25T09:59:09.964Z,7.68
2023-08-25T10:01:44.401Z,9.37
2023-08-25T10:04:11.862Z,5.88
2023-08-25T10:06:39.760Z,7.97
2023-08-25T10:09:07.695Z,8.55
2023-08-25T10:11:42.758Z,6.85
2023-08-25T10:14:12.971Z,5.50
2023-08-25T10:16:46.446Z,5.50
2023-08-25T10:19:15.692Z,7.68
2023-08-25T10:24:18.673Z,8.73
2023-08-25T10:26:46.569Z,5.43
2023-08-25T10:29:17.395Z,5.20
2023-08-25T10:31:53.189Z,6.07
2023-08-25T10:34:43.945Z,4.82
2023-08-25T10:37:23.292Z,5.50
2023-08-25T10:39:52.398Z,5.03
2023-08-25T10:42:28.642Z,8.13
2023-08-25T10:45:05.459Z,5.63
2023-08-25T10:47:32.510Z,4.57
2023-08-25T10:50:04.767Z,3.78
2023-08-25T10:52:32.773Z,3.42
2023-08-25T10:55:33.384Z,7.05
2023-08-25T10:58:05.715Z,3.45
2023-08-25T11:00:37.746Z,5.22
2023-08-25T11:03:05.785Z,5.88
2023-08-25T11:05:36.007Z,6.93
2023-08-25T11:08:04.343Z,5.05
2023-08-25T11:10:35.235Z,5.33
2023-08-25T11:13:10.272Z,4.32
2023-08-25T11:15:39.227Z,5.38
2023-08-25T11:18:09.400Z,4.32
2023-08-25T11:20:45.827Z,5.50
2023-08-25T11:23:20.158Z,4.28
2023-08-25T11:25:47.953Z,5.00
2023-08-25T11:28:14.724Z,7.90
2023-08-25T11:30:41.738Z,5.13
2023-08-25T11:33:10.188Z,8.02
2023-08-25T11:35:37.300Z,6.97
2023-08-25T11:38:04.214Z,3.72
2023-08-25T11:40:31.721Z,4.40
2023-08-25T11:42:58.955Z,4.53
2023-08-25T11:45:29.754Z,4.93
2023-08-25T11:47:57.349Z,4.35
2023-08-25T11:50:26.228Z,4.35
2023-08-25T11:52:55.991Z,3.00
2023-08-25T11:55:34.396Z,3.03
2023-08-25T11:58:08.393Z,4.55
2023-08-25T12:00:39.370Z,7.07
2023-08-25T12:03:07.338Z,4.10
2023-08-25T12:05:36.628Z,6.60
2023-08-25T12:10:37.981Z,3.92
2023-08-25T12:13:05.058Z,6.65
2023-08-25T12:15:46.472Z,6.43
2023-08-25T12:18:14.482Z,5.72
2023-08-25T12:20:45.368Z,4.97
2023-08-25T12:23:12.162Z,6.00
2023-08-25T12:25:38.989Z,5.80
2023-08-25T12:28:06.080Z,6.03
2023-08-25T12:30:32.773Z,7.07
2023-08-25T12:32:59.609Z,7.63
2023-08-25T12:35:27.760Z,5.45
2023-08-25T12:37:54.687Z,6.72
2023-08-25T12:40:21.895Z,8.75
2023-08-25T12:42:51.393Z,4.78
2023-08-25T12:45:18.395Z,4.70
2023-08-25T12:47:45.831Z,6.53
2023-08-25T12:50:12.751Z,8.20
2023-08-25T12:52:39.464Z,7.38
2023-08-25T12:55:19.641Z,4.63
2023-08-25T12:57:48.669Z,7.82
2023-08-25T13:00:16.011Z,7.18
2023-08-25T13:02:43.776Z,6.95
2023-08-25T13:05:10.828Z,4.75
2023-08-25T13:07:41.051Z,4.50
2023-08-25T13:10:09.638Z,8.02
2023-08-25T13:12:36.985Z,4.32
2023-08-25T13:15:05.130Z,5.97
2023-08-25T13:17:31.921Z,4.20
2023-08-25T13:19:58.887Z,5.57
2023-08-25T13:22:25.650Z,5.25
2023-08-25T13:24:52.353Z,5.70
2023-08-25T13:27:19.796Z,5.13
2023-08-25T13:29:46.556Z,9.15
2023-08-25T13:32:13.454Z,4.88
2023-08-25T13:34:40.278Z,4.80
2023-08-25T13:37:07.063Z,5.32
2023-08-25T13:39:34.962Z,9.55
2023-08-25T13:42:01.833Z,9.45
2023-08-25T13:44:34.419Z,5.72
2023-08-25T13:47:02.711Z,5.00
2023-08-25T13:49:29.468Z,5.05
2023-08-25T13:51:56.198Z,10.07
2023-08-25T13:54:23.494Z,6.07
2023-08-25T13:56:50.813Z,6.55
2023-08-25T13:59:18.131Z,6.03
2023-08-25T14:01:44.926Z,7.35
2023-08-25T14:04:11.732Z,5.47
2023-08-25T14:06:38.523Z,9.20
2023-08-25T14:09:06.039Z,8.60
2023-08-25T14:11:32.918Z,8.32
2023-08-25T14:14:00.046Z,5.10
2023-08-25T14:16:26.885Z,6.70
2023-08-25T14:18:53.674Z,7.93
2023-08-25T14:21:21.062Z,6.80
2023-08-25T14:23:47.904Z,5.15
2023-08-25T14:26:14.750Z,9.30
2023-08-25T14:28:41.821Z,5.38
2023-08-25T14:31:08.682Z,7.32
2023-08-25T14:33:35.586Z,5.63
2023-08-25T14:36:02.443Z,6.68
2023-08-25T14:38:29.251Z,8.68
2023-08-25T14:40:56.007Z,9.85
2023-08-25T14:43:22.943Z,6.65
2023-08-25T14:45:49.839Z,7.90
2023-08-25T14:48:16.677Z,7.40
2023-08-25T14:50:43.577Z,9.43
2023-08-25T14:53:11.759Z,7.05
2023-08-25T14:55:38.760Z,8.35
2023-08-25T14:58:05.542Z,9.48
2023-08-25T15:00:32.349Z,5.95
2023-08-25T15:02:59.478Z,12.13
2023-08-25T15:05:26.285Z,7.38
2023-08-25T15:07:53.605Z,6.60
2023-08-25T15:10:20.618Z,11.13
2023-08-25T15:12:47.546Z,7.70
2023-08-25T15:15:14.332Z,6.53
2023-08-25T15:17:41.160Z,9.85
2023-08-25T15:20:08.604Z,10.75
2023-08-25T15:22:35.419Z,9.98
2023-08-25T15:25:02.356Z,6.32
2023-08-25T15:27:29.099Z,8.57
2023-08-25T15:29:57.339Z,6.10
2023-08-25T15:32:24.322Z,7.97
2023-08-25T15:34:51.271Z,11.43
2023-08-25T15:37:17.988Z,10.52
2023-08-25T15:39:44.693Z,7.38
2023-08-25T15:42:11.501Z,9.98
2023-08-25T15:44:38.293Z,8.18
2023-08-25T15:47:05.168Z,6.10
2023-08-25T15:49:34.344Z,8.80
2023-08-25T15:52:01.111Z,10.05
2023-08-25T15:54:27.780Z,8.15
2023-08-25T15:56:54.510Z,7.65
2023-08-25T15:59:21.254Z,9.57
2023-08-25T16:01:48.615Z,7.75
2023-08-25T16:04:15.352Z,6.68
2023-08-25T16:06:42.182Z,8.23
2023-08-25T16:09:08.931Z,9.85
2023-08-25T16:11:35.623Z,12.98
2023-08-25T16:14:03.536Z,5.63
2023-08-25T16:16:30.332Z,7.20
2023-08-25T16:18:57.122Z,7.07
2023-08-25T16:21:25.830Z,7.78
2023-08-25T16:23:52.597Z,10.70
2023-08-25T16:26:19.308Z,9.70
2023-08-25T16:28:45.985Z,14.07
2023-08-25T16:31:16.128Z,10.68
2023-08-25T16:33:43.531Z,8.73
2023-08-25T16:36:11.535Z,9.93
2023-08-25T16:38:38.229Z,7.07
2023-08-25T16:41:05.148Z,11.95
2023-08-25T16:43:31.887Z,15.38
2023-08-25T16:45:58.669Z,10.60
2023-08-25T16:48:25.470Z,10.73
2023-08-25T16:50:52.307Z,7.75
2023-08-25T16:53:20.370Z,10.98
2023-08-25T16:55:47.541Z,9.02
2023-08-25T16:58:15.250Z,9.82
2023-08-25T17:00:42.602Z,14.70
2023-08-25T17:03:09.939Z,10.68
2023-08-25T17:05:36.807Z,10.77
2023-08-25T17:08:05.751Z,7.88
2023-08-25T17:10:33.284Z,9.32
2023-08-25T17:13:00.335Z,8.23
2023-08-25T17:15:32.747Z,10.55
2023-08-25T17:17:59.479Z,11.60
2023-08-25T17:20:26.149Z,8.73
2023-08-25T17:22:53.062Z,10.88
2023-08-25T17:25:20.112Z,16.77
2023-08-25T17:27:47.669Z,12.77
2023-08-25T17:30:14.704Z,11.55
2023-08-25T17:32:41.704Z,8.77
2023-08-25T17:35:08.807Z,9.75
2023-08-25T17:37:35.674Z,11.38
2023-08-25T17:40:04.597Z,9.05
2023-08-25T17:42:31.366Z,10.25
2023-08-25T17:44:58.569Z,13.65
2023-08-25T17:47:26.302Z,13.88
2023-08-25T17:49:54.279Z,25.23
2023-08-25T17:52:21.937Z,14.80
2023-08-25T17:54:48.704Z,7.80
2023-08-25T17:57:18.414Z,9.15
2023-08-25T17:59:45.127Z,7.70
2023-08-25T18:02:12.101Z,6.25
2023-08-25T18:04:39.603Z,11.10
2023-08-25T18:07:06.819Z,7.65
2023-08-25T18:09:33.713Z,10.52
2023-08-25T18:12:01.665Z,10.02
2023-08-25T18:14:29.488Z,7.05
2023-08-25T18:16:56.723Z,9.70
2023-08-25T18:19:23.609Z,10.85
2023-08-25T18:21:50.325Z,10.93
2023-08-25T18:24:17.466Z,11.80
2023-08-25T18:26:44.999Z,9.90
2023-08-25T18:29:12.328Z,10.25
2023-08-25T18:31:39.206Z,11.45
2023-08-25T18:34:06.105Z,7.88
2023-08-25T18:36:32.970Z,12.07
2023-08-25T18:38:59.658Z,7.63
2023-08-25T18:41:26.665Z,11.98
2023-08-25T18:43:53.697Z,11.02
2023-08-25T18:46:22.359Z,10.13
2023-08-25T18:48:49.460Z,10.40
2023-08-25T18:51:16.754Z,8.27
2023-08-25T18:53:43.634Z,10.20
2023-08-25T18:56:12.649Z,14.98
2023-08-25T18:58:39.616Z,17.83
2023-08-25T19:01:06.747Z,13.23
2023-08-25T19:03:33.745Z,13.02
2023-08-25T19:06:04.628Z,9.55
2023-08-25T19:08:35.507Z,7.93
2023-08-25T19:11:02.355Z,9.00
2023-08-25T19:13:30.075Z,11.02
2023-08-25T19:16:01.539Z,12.73
2023-08-25T19:18:29.164Z,17.45
2023-08-25T19:21:03.170Z,13.93
2023-08-25T19:23:34.937Z,12.20
2023-08-25T19:26:05.509Z,10.82
2023-08-25T19:28:32.255Z,12.80
2023-08-25T19:31:03.364Z,13.70
2023-08-25T19:33:31.031Z,11.32
2023-08-25T19:35:58.186Z,11.85
2023-08-25T19:38:28.378Z,15.00
2023-08-25T19:40:55.637Z,12.27
2023-08-25T19:43:22.733Z,11.80
2023-08-25T19:45:51.286Z,10.68
2023-08-25T19:48:18.259Z,15.93
2023-08-25T19:50:44.957Z,21.23
2023-08-25T19:53:11.696Z,17.42
2023-08-25T19:55:42.025Z,9.55
2023-08-25T19:58:10.143Z,7.50
2023-08-25T20:00:37.642Z,12.20
2023-08-25T20:03:05.115Z,11.13
2023-08-25T20:05:31.924Z,13.73
2023-08-25T20:07:58.766Z,9.00
2023-08-25T20:10:27.142Z,7.40
2023-08-25T20:12:54.640Z,9.23
2023-08-25T20:15:22.012Z,10.45
2023-08-25T20:17:48.850Z,13.15
2023-08-25T20:20:15.647Z,10.80
2023-08-25T20:22:42.485Z,11.85
2023-08-25T20:25:10.649Z,13.57
2023-08-25T20:27:37.934Z,14.07
2023-08-25T20:30:09.027Z,12.88
2023-08-25T20:32:36.090Z,11.48
2023-08-25T20:35:03.203Z,10.50
2023-08-25T20:37:29.881Z,11.32
2023-08-25T20:39:56.624Z,14.43
2023-08-25T20:42:23.564Z,11.55
2023-08-25T20:44:50.253Z,12.02
2023-08-25T20:47:17.023Z,8.65
2023-08-25T20:49:43.811Z,14.68
2023-08-25T20:52:10.488Z,9.70
2023-08-25T20:54:37.346Z,9.70
2023-08-25T20:57:07.342Z,10.43
2023-08-25T20:59:34.228Z,15.63
2023-08-25T21:02:01.038Z,17.15
2023-08-25T21:04:27.799Z,10.73
2023-08-25T21:06:54.553Z,15.23
2023-08-25T21:09:21.506Z,17.77
2023-08-25T21:11:48.339Z,15.15
2023-08-25T21:14:15.098Z,10.52
2023-08-25T21:16:41.930Z,11.73
2023-08-25T21:19:10.465Z,14.82
2023-08-25T21:21:40.230Z,11.35
2023-08-25T21:24:08.198Z,13.48
2023-08-25T21:26:35.222Z,15.25
2023-08-25T21:29:04.109Z,17.50
2023-08-25T21:31:31.683Z,25.95
2023-08-25T21:33:58.734Z,53.63
2023-08-25T21:36:25.588Z,27.70
2023-08-25T21:38:52.374Z,29.67
2023-08-25T21:41:19.370Z,24.55
2023-08-25T21:43:46.434Z,26.58
2023-08-25T21:46:13.481Z,29.95
2023-08-25T21:48:40.276Z,22.52
2023-08-25T21:51:07.273Z,29.65
2023-08-25T21:53:33.985Z,36.22
2023-08-25T21:56:01.661Z,23.77
2023-08-25T21:58:28.611Z,23.65
2023-08-25T22:00:55.567Z,25.40
2023-08-25T22:03:22.624Z,29.77
2023-08-25T22:05:55.156Z,29.65
2023-08-25T22:08:22.123Z,35.47
2023-08-25T22:10:48.959Z,31.45
2023-08-25T22:13:15.880Z,26.42
2023-08-25T22:15:42.606Z,26.30
2023-08-25T22:18:09.568Z,26.05
2023-08-25T22:20:36.333Z,34.22
2023-08-25T22:23:03.111Z,24.27
2023-08-25T22:25:29.861Z,27.23
2023-08-25T22:27:56.791Z,28.10
2023-08-25T22:30:23.711Z,23.88
2023-08-25T22:35:20.338Z,28.45
2023-08-25T22:37:47.083Z,29.67
2023-08-25T22:40:13.772Z,26.77
2023-08-25T22:42:40.601Z,23.10
2023-08-25T22:45:07.718Z,28.75
2023-08-25T22:47:34.889Z,30.38
2023-08-25T22:50:01.563Z,27.75
2023-08-25T22:52:28.245Z,26.42
2023-08-25T22:54:56.013Z,28.83
2023-08-25T22:57:22.694Z,22.60
2023-08-25T22:59:49.390Z,21.33
2023-08-25T23:02:16.171Z,20.83
2023-08-25T23:04:43.169Z,22.30
2023-08-25T23:07:09.824Z,19.45
2023-08-25T23:09:36.578Z,20.83
2023-08-25T23:12:03.664Z,21.58
2023-08-25T23:14:30.643Z,21.30
2023-08-25T23:16:57.376Z,20.50
2023-08-25T23:19:25.075Z,19.30
2023-08-25T23:21:51.806Z,18.40
2023-08-25T23:24:18.530Z,22.45
2023-08-25T23:26:49.484Z,22.80
2023-08-25T23:29:16.203Z,21.25
2023-08-25T23:31:43.031Z,18.15
2023-08-25T23:34:09.743Z,26.85
2023-08-25T23:36:36.556Z,20.23
2023-08-25T23:39:03.371Z,21.45
2023-08-25T23:41:30.227Z,17.88
2023-08-25T23:43:56.986Z,22.67
2023-08-25T23:46:23.680Z,22.50
2023-08-25T23:48:51.564Z,25.25
2023-08-25T23:51:18.271Z,20.77
2023-08-25T23:53:44.963Z,26.70
2023-08-25T23:56:11.710Z,21.25
2023-08-25T23:58:38.383Z,24.92
